Time;durP1;ratioP1;P1;durP2;ratioP2;P2;SDS_P1;SDS_P2;PMS_P1;PMS_P2;Temp;Humidity;BMP_temperature;BMP_pressure;BME280_temperature;BME280_humidity;BME280_pressure;Samples;Min_cycle;Max_cycle;Signal;HPM_P1;HPM_P2
2023/09/02 00:00:05;;;;;;;6.63;3.05;;;;;;;-142.57;74.47;115900.28;5001989;28;20034;-87
2023/09/02 00:02:38;;;;;;;6.15;2.47;;;;;;;-142.57;73.92;115900.28;5003955;28;20420;-86
2023/09/02 00:05:04;;;;;;;7.82;2.90;;;;;;;-142.57;75.27;115900.28;5002151;28;20061;-85
2023/09/02 00:07:29;;;;;;;10.32;3.45;;;;;;;-142.57;76.93;115900.28;4993503;28;20043;-84
2023/09/02 00:09:55;;;;;;;9.82;3.03;;;;;;;-142.57;79.85;115900.28;5000909;28;20041;-84
2023/09/02 00:12:21;;;;;;;7.88;2.70;;;;;;;-142.57;80.30;115900.28;5004545;28;20073;-86
2023/09/02 00:14:47;;;;;;;7.95;2.90;;;;;;;-142.57;79.99;115900.28;5006430;28;20042;-86
2023/09/02 00:17:12;;;;;;;7.72;2.55;;;;;;;-142.57;80.39;115900.28;5005818;28;20102;-85
2023/09/02 00:19:38;;;;;;;8.05;2.63;;;;;;;-142.57;78.69;115900.28;5006646;28;20065;-86
2023/09/02 00:22:04;;;;;;;13.40;3.10;;;;;;;-142.57;78.43;115900.28;4989989;28;20051;-86
2023/09/02 00:24:29;;;;;;;8.93;2.72;;;;;;;-142.57;80.96;115900.28;5009481;28;20034;-85
2023/09/02 00:26:58;;;;;;;11.73;3.17;;;;;;;-142.57;83.44;115900.28;5011317;28;20042;-85
2023/09/02 00:29:24;;;;;;;7.78;2.72;;;;;;;-142.57;82.54;115900.28;5007963;28;20057;-87
2023/09/02 00:31:50;;;;;;;6.22;2.47;;;;;;;-142.57;83.52;115900.28;4998921;28;20027;-86
2023/09/02 00:34:15;;;;;;;6.60;2.85;;;;;;;-142.57;83.42;115900.28;4965217;28;20499;-85
2023/09/02 00:36:41;;;;;;;8.15;3.08;;;;;;;-142.57;83.02;115900.28;4982975;28;20039;-86
2023/09/02 00:39:06;;;;;;;10.40;2.90;;;;;;;-142.57;82.01;115900.28;4975657;28;20038;-86
2023/09/02 00:41:50;;;;;;;12.00;3.67;;;;;;;-142.57;81.49;115900.28;4982147;28;20034;-86
2023/09/02 00:44:16;;;;;;;10.30;3.28;;;;;;;-142.57;81.74;115900.28;4990930;28;20046;-86
2023/09/02 00:46:41;;;;;;;16.55;3.20;;;;;;;-142.57;81.01;115900.28;4990956;28;20027;-86
2023/09/02 00:49:07;;;;;;;10.75;3.05;;;;;;;-142.57;83.25;115900.28;4993940;28;20115;-86
2023/09/02 00:51:33;;;;;;;9.32;3.00;;;;;;;-142.57;83.01;115900.28;4998496;28;20042;-85
2023/09/02 00:53:58;;;;;;;9.88;2.85;;;;;;;-142.57;83.85;115900.28;4997586;28;20046;-85
2023/09/02 00:56:25;;;;;;;9.43;3.53;;;;;;;-142.57;86.17;115900.28;4996944;28;20019;-86
2023/09/02 00:58:52;;;;;;;7.90;2.72;;;;;;;-142.57;87.29;115900.28;4987145;28;20026;-86
2023/09/02 01:01:19;;;;;;;8.43;3.25;;;;;;;-142.57;88.31;115900.28;4977726;28;20378;-86
2023/09/02 01:03:48;;;;;;;9.05;3.03;;;;;;;-142.57;88.29;115900.28;4978621;28;20027;-86
2023/09/02 01:06:14;;;;;;;7.25;3.25;;;;;;;-142.57;87.64;115900.28;4992461;28;20042;-84
2023/09/02 01:08:41;;;;;;;9.02;3.03;;;;;;;-142.57;87.96;115900.28;4996829;28;20110;-84
2023/09/02 01:11:09;;;;;;;10.50;3.55;;;;;;;-142.57;87.13;115900.28;4988974;28;20035;-84
2023/09/02 01:13:34;;;;;;;8.48;3.42;;;;;;;-142.57;89.65;115900.28;4998528;28;20407;-84
2023/09/02 01:16:00;;;;;;;9.50;3.50;;;;;;;-142.57;90.12;115900.28;4997044;28;20030;-83
2023/09/02 01:18:26;;;;;;;9.20;3.33;;;;;;;-142.57;91.36;115900.28;4997625;28;20041;-86
2023/09/02 01:21:11;;;;;;;8.50;3.58;;;;;;;-142.57;90.98;115900.28;4996830;28;20023;-84
2023/09/02 01:24:02;;;;;;;9.80;3.28;;;;;;;-142.57;89.53;115900.28;4990108;28;20038;-84
2023/09/02 01:26:58;;;;;;;7.43;3.10;;;;;;;-142.57;91.85;115900.28;5012101;28;20033;-83
2023/09/02 01:29:27;;;;;;;8.20;2.80;;;;;;;-142.57;91.16;115900.28;5016230;28;20035;-84
2023/09/02 01:31:54;;;;;;;9.02;2.90;;;;;;;-142.57;89.00;115900.28;5016619;28;20014;-84
2023/09/02 01:34:23;;;;;;;10.35;2.83;;;;;;;-142.57;87.65;115900.28;5015077;28;20053;-83
2023/09/02 01:36:52;;;;;;;10.13;3.22;;;;;;;-142.57;87.43;115900.28;4999240;28;20038;-85
2023/09/02 01:39:22;;;;;;;10.40;2.58;;;;;;;-142.57;86.31;115900.28;4996316;28;20415;-85
2023/09/02 01:41:51;;;;;;;5.80;2.67;;;;;;;-142.57;86.10;115900.28;4977850;28;20042;-84
2023/09/02 01:44:16;;;;;;;7.70;3.13;;;;;;;-142.57;87.25;115900.28;4992503;28;20034;-84
2023/09/02 01:46:42;;;;;;;8.73;3.17;;;;;;;-142.57;86.85;115900.28;4995649;28;20069;-83
2023/09/02 01:49:09;;;;;;;6.10;2.75;;;;;;;-142.57;87.68;115900.28;5005518;28;20050;-85
2023/09/02 01:51:35;;;;;;;5.47;2.72;;;;;;;-142.57;89.76;115900.28;4986049;28;20026;-85
2023/09/02 01:54:00;;;;;;;6.80;3.33;;;;;;;-142.57;91.19;115900.28;4998822;28;20049;-84
2023/09/02 01:56:27;;;;;;;18.23;3.50;;;;;;;-142.57;91.85;115900.28;5002290;28;20031;-85
2023/09/02 01:58:53;;;;;;;9.60;3.05;;;;;;;-142.57;90.43;115900.28;5002958;28;20107;-84
2023/09/02 02:01:19;;;;;;;5.63;2.65;;;;;;;-142.57;90.53;115900.28;4995145;28;20124;-86
2023/09/02 02:03:59;;;;;;;8.32;3.28;;;;;;;-142.57;90.19;115900.28;4986962;28;20038;-83
2023/09/02 02:06:25;;;;;;;8.57;3.17;;;;;;;-142.57;88.70;115900.28;4977471;28;20503;-84
2023/09/02 02:09:12;;;;;;;10.10;3.28;;;;;;;-142.57;88.79;115900.28;4959421;28;20473;-85
2023/09/02 02:11:38;;;;;;;10.63;3.40;;;;;;;-142.57;89.90;115900.28;4976915;28;20500;-84
2023/09/02 02:14:05;;;;;;;7.88;3.30;;;;;;;-142.57;88.76;115900.28;4978089;28;20035;-82
2023/09/02 02:16:31;;;;;;;5.70;3.00;;;;;;;-142.57;88.41;115900.28;4977270;28;20126;-85
2023/09/02 02:18:58;;;;;;;8.85;4.45;;;;;;;-142.57;90.82;115900.28;4976061;28;20043;-83
2023/09/02 02:21:24;;;;;;;9.65;4.40;;;;;;;-142.57;91.91;115900.28;4977817;28;20035;-85
2023/09/02 02:23:50;;;;;;;6.15;3.15;;;;;;;-142.57;92.27;115900.28;4977234;28;20395;-84
2023/09/02 02:26:15;;;;;;;8.98;3.63;;;;;;;-142.57;91.94;115900.28;4975854;28;20046;-84
2023/09/02 02:28:42;;;;;;;5.90;3.00;;;;;;;-142.57;92.35;115900.28;4958453;28;20081;-84
2023/09/02 02:31:07;;;;;;;10.77;3.67;;;;;;;-142.57;97.83;115900.28;4976923;28;20101;-83
2023/09/02 02:33:33;;;;;;;5.03;2.97;;;;;;;-142.57;97.37;115900.28;4974222;28;20062;-85
2023/09/02 02:35:58;;;;;;;9.05;3.03;;;;;;;-142.57;96.36;115900.28;4976578;28;20039;-84
2023/09/02 02:38:24;;;;;;;13.18;3.42;;;;;;;-142.57;95.41;115900.28;4977629;28;20046;-82
2023/09/02 02:40:50;;;;;;;9.00;3.03;;;;;;;-142.57;94.55;115900.28;4977064;28;20031;-84
2023/09/02 02:43:16;;;;;;;8.00;3.30;;;;;;;-142.57;96.50;115900.28;4976288;28;20035;-86
2023/09/02 02:45:42;;;;;;;10.57;3.15;;;;;;;-142.57;97.14;115900.28;4977270;28;20037;-84
2023/09/02 02:48:15;;;;;;;9.60;3.17;;;;;;;-142.57;99.07;115900.28;4977715;28;20125;-84
2023/09/02 02:50:41;;;;;;;9.32;3.45;;;;;;;-142.57;99.51;115900.28;4976845;28;20428;-85
2023/09/02 02:53:07;;;;;;;8.93;3.28;;;;;;;-142.57;100.00;115900.28;4976882;28;20031;-86
2023/09/02 02:55:33;;;;;;;8.35;3.80;;;;;;;-142.57;97.99;115900.28;4975913;28;20041;-86
2023/09/02 02:58:00;;;;;;;8.95;3.42;;;;;;;-142.57;99.67;115900.28;4977431;28;20023;-86
2023/09/02 03:00:25;;;;;;;9.43;3.90;;;;;;;-142.57;100.00;115900.28;4976967;28;20469;-87
2023/09/02 03:02:52;;;;;;;10.65;3.13;;;;;;;-142.57;100.00;115900.28;4996930;28;20047;-85
2023/09/02 03:05:20;;;;;;;9.90;3.75;;;;;;;-142.57;100.00;115900.28;4997105;28;20049;-83
2023/09/02 03:07:49;;;;;;;11.38;3.50;;;;;;;-142.57;100.00;115900.28;4995360;28;20403;-86
2023/09/02 03:10:16;;;;;;;10.35;3.65;;;;;;;-142.57;100.00;115900.28;4995692;28;20026;-86
2023/09/02 03:12:42;;;;;;;8.20;3.63;;;;;;;-142.57;100.00;115900.28;4998943;28;20114;-85
2023/09/02 03:15:09;;;;;;;10.07;3.42;;;;;;;-142.57;100.00;115900.28;5001958;28;20061;-86
2023/09/02 03:17:35;;;;;;;9.52;3.80;;;;;;;-142.57;100.00;115900.28;5001706;28;20042;-85
2023/09/02 03:20:03;;;;;;;9.52;4.15;;;;;;;-142.57;100.00;115900.28;5003048;28;20038;-85
2023/09/02 03:22:31;;;;;;;9.05;3.85;;;;;;;-142.57;100.00;115900.28;4983492;28;20034;-84
2023/09/02 03:24:56;;;;;;;9.15;3.35;;;;;;;-142.57;100.00;115900.28;5001953;28;20057;-86
2023/09/02 03:27:25;;;;;;;6.72;3.47;;;;;;;-142.57;100.00;115900.28;5001841;28;20042;-86
2023/09/02 03:29:51;;;;;;;8.27;3.10;;;;;;;-142.57;100.00;115900.28;4987137;28;20038;-84
2023/09/02 03:32:19;;;;;;;10.82;3.85;;;;;;;-142.57;100.00;115900.28;5001400;28;20030;-84
2023/09/02 03:34:48;;;;;;;11.10;3.63;;;;;;;-142.57;100.00;115900.28;5004696;28;21158;-86
2023/09/02 03:37:13;;;;;;;11.02;3.35;;;;;;;-142.57;100.00;115900.28;5001704;28;20047;-85
2023/09/02 03:39:39;;;;;;;9.90;3.58;;;;;;;-142.57;100.00;115900.28;5004007;28;20037;-86
2023/09/02 03:42:05;;;;;;;6.28;2.88;;;;;;;-142.57;100.00;115900.28;5002077;28;20038;-85
2023/09/02 03:44:31;;;;;;;7.22;3.22;;;;;;;-142.57;100.00;115900.28;5005645;28;20089;-85
2023/09/02 03:46:57;;;;;;;9.05;4.03;;;;;;;-142.57;100.00;115900.28;5003905;28;20562;-84
2023/09/02 03:49:23;;;;;;;9.55;3.80;;;;;;;-142.57;100.00;115900.28;5002665;28;20066;-85
2023/09/02 03:51:48;;;;;;;10.18;3.33;;;;;;;-142.57;100.00;115900.28;5001099;28;20034;-85
2023/09/02 03:54:14;;;;;;;13.35;4.10;;;;;;;-142.57;100.00;115900.28;5003224;28;20495;-84
2023/09/02 03:56:41;;;;;;;6.70;3.30;;;;;;;-142.57;100.00;115900.28;5000780;28;20084;-85
2023/09/02 03:59:07;;;;;;;7.60;3.55;;;;;;;-142.57;100.00;115900.28;4998503;28;20533;-84
2023/09/02 04:01:33;;;;;;;14.15;3.88;;;;;;;-142.57;100.00;115900.28;5000714;28;20038;-85
2023/09/02 04:04:00;;;;;;;9.82;4.15;;;;;;;-142.57;100.00;115900.28;5001497;28;20030;-86
2023/09/02 04:06:25;;;;;;;9.07;4.53;;;;;;;-142.57;100.00;115900.28;5000704;28;20038;-83
2023/09/02 04:08:51;;;;;;;13.43;3.95;;;;;;;-142.57;100.00;115900.28;5004634;28;20037;-86
2023/09/02 04:11:18;;;;;;;13.48;4.18;;;;;;;-142.57;100.00;115900.28;4987133;28;20083;-85
2023/09/02 04:13:44;;;;;;;10.63;4.30;;;;;;;-142.57;100.00;115900.28;4985886;28;20027;-84
2023/09/02 04:16:11;;;;;;;9.30;3.40;;;;;;;-142.57;100.00;115900.28;4982203;28;20101;-85
2023/09/02 04:18:37;;;;;;;13.07;4.25;;;;;;;-142.57;100.00;115900.28;4983440;28;20035;-84
2023/09/02 04:21:04;;;;;;;9.10;3.40;;;;;;;-142.57;100.00;115900.28;5002748;28;20035;-84
2023/09/02 04:23:34;;;;;;;8.52;3.90;;;;;;;-142.57;100.00;115900.28;5004655;28;20027;-86
2023/09/02 04:26:07;;;;;;;10.00;4.05;;;;;;;-142.57;100.00;115900.28;5004273;28;20491;-85
2023/09/02 04:28:33;;;;;;;8.25;3.58;;;;;;;-142.57;100.00;115900.28;5004758;28;20081;-85
2023/09/02 04:30:59;;;;;;;11.00;4.13;;;;;;;-142.57;100.00;115900.28;4982374;28;20034;-87
2023/09/02 04:33:28;;;;;;;8.30;3.60;;;;;;;-142.57;100.00;115900.28;4982912;28;20039;-84
2023/09/02 04:35:54;;;;;;;10.77;4.13;;;;;;;-142.57;100.00;115900.28;4977970;28;20038;-86
2023/09/02 04:38:21;;;;;;;7.80;3.45;;;;;;;-142.57;100.00;115900.28;4977385;28;20444;-85
2023/09/02 04:40:53;;;;;;;8.38;3.53;;;;;;;-142.57;100.00;115900.28;4980285;28;20045;-84
2023/09/02 04:43:19;;;;;;;12.60;3.75;;;;;;;-142.57;100.00;115900.28;4996623;28;20078;-86
2023/09/02 04:45:46;;;;;;;8.68;4.13;;;;;;;-142.57;100.00;115900.28;4987912;28;20046;-84
2023/09/02 04:48:19;;;;;;;15.18;3.65;;;;;;;-142.57;100.00;115900.28;4988971;28;20066;-84
2023/09/02 04:51:04;;;;;;;8.75;3.72;;;;;;;-142.57;100.00;115900.28;4988381;28;20041;-85
2023/09/02 04:53:33;;;;;;;9.70;3.25;;;;;;;-142.57;100.00;115900.28;4985918;28;20050;-86
2023/09/02 04:56:03;;;;;;;7.13;3.40;;;;;;;-142.57;100.00;115900.28;4978111;28;20093;-86
2023/09/02 04:58:30;;;;;;;7.82;3.65;;;;;;;-142.57;100.00;115900.28;4977013;28;20074;-87
2023/09/02 05:01:07;;;;;;;6.78;3.50;;;;;;;-142.57;100.00;115900.28;4978672;28;20073;-86
2023/09/02 05:03:32;;;;;;;11.80;3.90;;;;;;;-142.57;100.00;115900.28;4981371;28;20043;-84
2023/09/02 05:05:58;;;;;;;7.78;3.58;;;;;;;-142.57;100.00;115900.28;4983032;28;20035;-85
2023/09/02 05:08:31;;;;;;;11.77;3.92;;;;;;;-142.57;100.00;115900.28;4985062;28;20038;-84
2023/09/02 05:10:57;;;;;;;14.77;3.90;;;;;;;-142.57;100.00;115900.28;4978933;28;20042;-87
2023/09/02 05:13:22;;;;;;;11.65;3.70;;;;;;;-142.57;100.00;115900.28;4968022;28;20039;-86
2023/09/02 05:15:51;;;;;;;12.95;4.15;;;;;;;-142.57;100.00;115900.28;4963588;28;20042;-85
2023/09/02 05:18:17;;;;;;;14.30;3.63;;;;;;;-142.57;100.00;115900.28;4978893;28;20440;-86
2023/09/02 05:20:43;;;;;;;10.88;3.47;;;;;;;-142.57;100.00;115900.28;4965485;28;20050;-86
2023/09/02 05:23:09;;;;;;;11.90;3.30;;;;;;;-142.57;97.17;115900.28;4996295;28;20555;-86
2023/09/02 05:25:35;;;;;;;9.23;3.30;;;;;;;-142.57;93.66;115900.28;4995864;28;20042;-86
2023/09/02 05:28:01;;;;;;;18.23;3.60;;;;;;;-142.57;96.76;115900.28;4996425;28;20121;-86
2023/09/02 05:30:28;;;;;;;14.90;3.88;;;;;;;-142.57;96.22;115900.28;4996856;28;20133;-88
2023/09/02 05:32:53;;;;;;;16.05;3.72;;;;;;;-142.57;95.29;115900.28;4996181;28;20038;-85
2023/09/02 05:35:19;;;;;;;15.52;3.53;;;;;;;-142.57;95.95;115900.28;4998262;28;20036;-88
2023/09/02 05:37:44;;;;;;;10.77;3.25;;;;;;;-142.57;92.71;115900.28;4999062;28;20038;-87
2023/09/02 05:40:10;;;;;;;18.75;3.22;;;;;;;-142.57;91.47;115900.28;5001663;28;20038;-87
2023/09/02 05:42:36;;;;;;;15.20;3.60;;;;;;;-142.57;87.02;115900.28;4981251;28;20113;-87
2023/09/02 05:45:05;;;;;;;13.52;3.92;;;;;;;-142.57;76.68;115900.28;4990772;28;20150;-87
2023/09/02 05:47:30;;;;;;;18.63;3.83;;;;;;;-142.57;72.00;115900.28;4998198;28;20707;-85
2023/09/02 05:50:00;;;;;;;24.80;4.13;;;;;;;-142.57;67.50;115900.28;4996637;28;20081;-84
2023/09/02 05:52:26;;;;;;;11.98;3.08;;;;;;;-142.57;67.02;115900.28;4998826;28;20480;-87
2023/09/02 05:54:52;;;;;;;19.85;3.50;;;;;;;-142.57;61.42;115900.28;4998561;28;20042;-85
2023/09/02 05:57:17;;;;;;;11.57;2.88;;;;;;;-142.57;59.35;115900.28;4986958;28;20058;-86
2023/09/02 05:59:44;;;;;;;12.80;3.30;;;;;;;-142.57;56.56;115900.28;4979931;28;20038;-85
2023/09/02 06:02:10;;;;;;;11.40;3.33;;;;;;;-142.57;58.35;115900.28;4977203;28;20031;-84
2023/09/02 06:04:35;;;;;;;15.57;3.10;;;;;;;-142.57;57.95;115900.28;4978960;28;20515;-87
2023/09/02 06:07:01;;;;;;;9.57;3.25;;;;;;;-142.57;59.56;115900.28;4978075;28;20089;-79
2023/09/02 06:09:29;;;;;;;7.30;2.67;;;;;;;-142.57;57.67;115900.28;4997381;28;20085;-86
2023/09/02 06:11:55;;;;;;;9.73;3.15;;;;;;;-142.57;58.63;115900.28;4995149;28;20046;-83
2023/09/02 06:14:23;;;;;;;11.65;3.47;;;;;;;-142.57;63.51;115900.28;4994941;28;20030;-82
2023/09/02 06:16:52;;;;;;;8.13;2.90;;;;;;;-142.57;61.65;115900.28;4993198;28;20043;-81
2023/09/02 06:19:21;;;;;;;8.13;3.03;;;;;;;-142.57;57.42;115900.28;4989125;28;20527;-82
2023/09/02 06:21:46;;;;;;;11.30;2.78;;;;;;;-142.57;54.00;115900.28;4975144;28;20472;-80
2023/09/02 06:24:13;;;;;;;11.27;3.20;;;;;;;-142.57;56.95;115900.28;4977483;28;20118;-81
2023/09/02 06:26:38;;;;;;;9.15;2.88;;;;;;;-142.57;57.33;115900.28;4976615;28;20447;-84
2023/09/02 06:29:04;;;;;;;7.65;2.80;;;;;;;-142.57;60.86;115900.28;4979703;28;20038;-85
2023/09/02 06:31:29;;;;;;;10.05;3.08;;;;;;;-142.57;55.38;115900.28;4990583;28;20033;-82
2023/09/02 06:33:55;;;;;;;8.55;2.70;;;;;;;-142.57;55.91;115900.28;4993925;28;20043;-80
2023/09/02 06:36:21;;;;;;;6.97;2.55;;;;;;;-142.57;53.53;115900.28;4992199;28;20132;-81
2023/09/02 06:38:47;;;;;;;8.73;2.78;;;;;;;-142.57;56.63;115900.28;4991578;28;20042;-79
2023/09/02 06:41:14;;;;;;;10.00;3.00;;;;;;;-142.57;51.47;115900.28;4994287;28;20050;-86
2023/09/02 06:43:41;;;;;;;11.27;2.75;;;;;;;-142.57;46.77;115900.28;4993766;28;20065;-90
2023/09/02 06:46:11;;;;;;;9.48;2.63;;;;;;;-142.57;47.62;115900.28;4996664;28;20035;-84
2023/09/02 06:48:36;;;;;;;8.25;3.15;;;;;;;-142.57;49.33;115900.28;4992975;28;20529;-86
2023/09/02 06:51:02;;;;;;;10.77;2.75;;;;;;;-142.57;47.46;115900.28;4994955;28;20035;-88
2023/09/02 06:53:27;;;;;;;6.95;3.13;;;;;;;-142.57;47.96;115900.28;4993924;28;20041;-86
2023/09/02 06:55:53;;;;;;;12.40;3.13;;;;;;;-142.57;48.23;115900.28;4995306;28;20039;-85
2023/09/02 06:58:20;;;;;;;7.55;2.70;;;;;;;-142.57;49.78;115900.28;4998320;28;20030;-85
2023/09/02 07:00:48;;;;;;;11.65;2.80;;;;;;;-142.57;49.35;115900.28;5001879;28;20041;-88
2023/09/02 07:03:14;;;;;;;9.13;2.90;;;;;;;-142.57;47.17;115900.28;4978300;28;20062;-89
2023/09/02 07:05:40;;;;;;;7.10;2.85;;;;;;;-142.57;46.19;115900.28;5015291;28;20069;-87
2023/09/02 07:08:05;;;;;;;13.40;2.60;;;;;;;-142.57;45.89;115900.28;5017833;28;20031;-88
2023/09/02 07:10:31;;;;;;;8.27;2.90;;;;;;;-142.57;47.58;115900.28;5007575;28;20027;-88
2023/09/02 07:12:56;;;;;;;11.77;3.22;;;;;;;-142.57;47.87;115900.28;5008606;28;20033;-89
2023/09/02 07:15:25;;;;;;;9.38;2.72;;;;;;;-142.57;47.58;115900.28;4994478;28;20061;-88
2023/09/02 07:17:52;;;;;;;10.45;2.70;;;;;;;-142.57;47.92;115900.28;5008942;28;20042;-85
2023/09/02 07:20:20;;;;;;;10.98;2.50;;;;;;;-142.57;46.47;115900.28;4995845;28;20058;-86
2023/09/02 07:22:46;;;;;;;6.63;2.60;;;;;;;-142.57;46.19;115900.28;4985621;28;20129;-89
2023/09/02 07:25:15;;;;;;;9.32;2.78;;;;;;;-142.57;43.52;115900.28;4985537;28;20046;-86
2023/09/02 07:27:40;;;;;;;9.43;3.05;;;;;;;-142.57;44.95;115900.28;4986938;28;20050;-87
2023/09/02 07:30:10;;;;;;;9.60;3.20;;;;;;;-142.57;44.78;115900.28;5000707;28;20046;-86
2023/09/02 07:32:36;;;;;;;9.13;2.17;;;;;;;-142.57;45.41;115900.28;4992473;28;20038;-89
2023/09/02 07:35:01;;;;;;;9.45;3.05;;;;;;;-142.57;43.56;115900.28;5003302;28;20050;-89
2023/09/02 07:37:27;;;;;;;9.07;2.47;;;;;;;-142.57;41.74;115900.28;4995295;28;20110;-87
2023/09/02 07:40:00;;;;;;;8.27;2.65;;;;;;;-142.57;41.46;115900.28;4997575;28;20030;-88
2023/09/02 07:42:28;;;;;;;9.07;2.15;;;;;;;-142.57;40.79;115900.28;4999568;28;20038;-87
2023/09/02 07:45:11;;;;;;;11.20;2.80;;;;;;;-142.57;41.01;115900.28;4999718;28;20038;-86
2023/09/02 07:47:37;;;;;;;10.25;2.63;;;;;;;-142.57;41.05;115900.28;5002007;28;20050;-87
2023/09/02 07:50:03;;;;;;;5.35;2.42;;;;;;;-142.57;42.46;115900.28;4998083;28;20026;-87
2023/09/02 07:52:29;;;;;;;12.05;3.35;;;;;;;-142.57;42.72;115900.28;4968899;28;20035;-91
2023/09/02 07:54:55;;;;;;;9.75;2.67;;;;;;;-142.57;42.34;115900.28;4989689;28;20035;-88
2023/09/02 07:57:21;;;;;;;4.47;2.28;;;;;;;-142.57;42.18;115900.28;4984676;28;20518;-89
2023/09/02 07:59:48;;;;;;;7.90;2.20;;;;;;;-142.57;42.64;115900.28;4989724;28;20111;-90
2023/09/02 08:02:14;;;;;;;10.70;2.53;;;;;;;-142.57;40.35;115900.28;4993801;28;20046;-86
2023/09/02 08:04:40;;;;;;;9.02;2.58;;;;;;;-142.57;38.37;115900.28;5008700;28;20061;-91
2023/09/02 08:07:10;;;;;;;11.27;3.33;;;;;;;-142.57;38.58;115900.28;4981630;28;20078;-91
2023/09/02 08:09:37;;;;;;;10.43;2.95;;;;;;;-142.57;38.75;115900.28;5013087;28;20045;-91
2023/09/02 08:12:22;;;;;;;9.90;2.92;;;;;;;-142.57;38.51;115900.28;5008012;28;20038;-90
2023/09/02 08:14:48;;;;;;;9.80;2.78;;;;;;;-142.57;39.51;115900.28;4999389;28;20166;-90
2023/09/02 08:17:14;;;;;;;9.93;2.63;;;;;;;-142.57;37.69;115900.28;4993387;28;20035;-90
2023/09/02 08:19:42;;;;;;;15.82;2.80;;;;;;;-142.57;37.74;115900.28;4989655;28;20038;-88
2023/09/02 08:22:29;;;;;;;9.98;2.92;;;;;;;-142.57;37.05;115900.28;4990920;28;20030;-91
2023/09/02 08:24:55;;;;;;;12.88;2.92;;;;;;;-142.57;38.19;115900.28;4998129;28;20065;-81
2023/09/02 08:27:28;;;;;;;7.35;2.42;;;;;;;-142.57;37.06;115900.28;4996713;28;20023;-82
2023/09/02 08:29:54;;;;;;;8.50;2.65;;;;;;;-142.57;37.68;115900.28;5014100;28;20085;-86
2023/09/02 08:32:20;;;;;;;11.15;2.83;;;;;;;-142.57;37.52;115900.28;5014121;28;20031;-87
2023/09/02 08:34:45;;;;;;;9.73;3.08;;;;;;;-142.57;37.56;115900.28;4988003;28;20035;-83
2023/09/02 08:37:11;;;;;;;9.75;3.17;;;;;;;-142.57;37.53;115900.28;4978852;28;20031;-84
2023/09/02 08:39:36;;;;;;;10.73;3.25;;;;;;;-142.57;39.52;115900.28;4977185;28;20042;-84
2023/09/02 08:42:05;;;;;;;12.50;3.15;;;;;;;-142.57;40.65;115900.28;4965839;28;20117;-85
2023/09/02 08:44:35;;;;;;;11.80;3.63;;;;;;;-142.57;40.35;115900.28;4984091;28;20038;-87
2023/09/02 08:47:09;;;;;;;10.07;3.05;;;;;;;-142.57;39.53;115900.28;4989513;28;20098;-88
2023/09/02 08:49:39;;;;;;;14.88;3.70;;;;;;;-142.57;39.84;115900.28;4981098;28;20046;-87
2023/09/02 08:52:08;;;;;;;15.38;3.72;;;;;;;-142.57;39.48;115900.28;5000512;28;20390;-89
2023/09/02 08:54:36;;;;;;;11.68;2.97;;;;;;;-142.57;37.86;115900.28;5000227;28;20030;-85
2023/09/02 08:57:02;;;;;;;7.20;3.40;;;;;;;-142.57;38.36;115900.28;5001527;28;20053;-84
2023/09/02 08:59:28;;;;;;;10.27;3.38;;;;;;;-142.57;38.62;115900.28;4988048;28;20047;-85
2023/09/02 09:01:56;;;;;;;17.45;3.55;;;;;;;-142.57;38.11;115900.28;5003787;28;20057;-89
2023/09/02 09:04:23;;;;;;;14.60;3.80;;;;;;;-142.57;39.09;115900.28;5000499;28;20460;-87
2023/09/02 09:06:51;;;;;;;6.53;3.38;;;;;;;-142.57;38.73;115900.28;5000530;28;20046;-91
2023/09/02 09:09:19;;;;;;;12.00;3.60;;;;;;;-142.57;38.46;115900.28;5005911;28;20035;-91
2023/09/02 09:11:47;;;;;;;18.05;3.80;;;;;;;-142.57;39.61;115900.28;5000725;28;20160;-86
2023/09/02 09:14:23;;;;;;;18.58;3.97;;;;;;;-142.57;38.16;115900.28;4988646;28;20062;-88
2023/09/02 09:16:52;;;;;;;19.77;4.47;;;;;;;-142.57;39.62;115900.28;4993385;28;20026;-85
2023/09/02 09:19:23;;;;;;;12.52;4.20;;;;;;;-142.57;38.88;115900.28;4993708;28;20038;-84
2023/09/02 09:21:48;;;;;;;12.93;3.60;;;;;;;-142.57;38.41;115900.28;4992043;28;20081;-85
2023/09/02 09:24:17;;;;;;;11.35;3.67;;;;;;;-142.57;38.04;115900.28;5001079;28;20049;-85
2023/09/02 09:26:44;;;;;;;9.70;3.47;;;;;;;-142.57;37.09;115900.28;4996202;28;20041;-82
2023/09/02 09:29:15;;;;;;;8.80;3.83;;;;;;;-142.57;36.93;115900.28;4994178;28;20094;-86
2023/09/02 09:31:44;;;;;;;13.32;3.63;;;;;;;-142.57;37.33;115900.28;5014807;28;20042;-84
2023/09/02 09:34:13;;;;;;;12.05;3.08;;;;;;;-142.57;37.05;115900.28;5019876;28;20062;-84
2023/09/02 09:36:39;;;;;;;10.68;3.70;;;;;;;-142.57;36.48;115900.28;5020936;28;20461;-86
2023/09/02 09:39:08;;;;;;;6.60;3.30;;;;;;;-142.57;36.83;115900.28;4979813;28;20050;-89
2023/09/02 09:41:40;;;;;;;16.10;4.00;;;;;;;-142.57;35.31;115900.28;4994633;28;20054;-87
2023/09/02 09:44:09;;;;;;;13.73;4.13;;;;;;;-142.57;36.28;115900.28;4981423;28;20042;-87
2023/09/02 09:46:44;;;;;;;9.25;3.47;;;;;;;-142.57;35.90;115900.28;4979081;28;20053;-87
2023/09/02 09:49:35;;;;;;;13.90;3.60;;;;;;;-142.57;36.22;115900.28;4981211;28;20097;-83
2023/09/02 09:52:00;;;;;;;10.35;3.33;;;;;;;-142.57;36.45;115900.28;4980391;28;20066;-86
2023/09/02 09:54:50;;;;;;;15.48;4.30;;;;;;;-142.57;35.10;115900.28;4995530;28;20640;-89
2023/09/02 09:57:50;;;;;;;16.88;3.92;;;;;;;-142.57;33.76;115900.28;5007098;28;20092;-84
2023/09/02 10:00:16;;;;;;;11.25;3.90;;;;;;;-142.57;32.37;115900.28;5002592;28;20041;-83
2023/09/02 10:02:52;;;;;;;15.02;3.58;;;;;;;-142.57;32.84;115900.28;5015940;28;20032;-81
2023/09/02 10:05:28;;;;;;;10.55;3.92;;;;;;;-142.57;33.87;115900.28;5023898;28;20124;-88
2023/09/02 10:08:05;;;;;;;11.20;4.45;;;;;;;-142.57;34.45;115900.28;4985163;28;20070;-83
2023/09/02 10:10:38;;;;;;;13.75;4.10;;;;;;;-142.57;34.79;115900.28;4993434;28;20038;-88
2023/09/02 10:13:05;;;;;;;18.23;3.63;;;;;;;-142.57;33.55;115900.28;4982279;28;20030;-84
2023/09/02 10:15:32;;;;;;;9.35;4.13;;;;;;;-142.57;33.89;115900.28;5001403;28;20058;-87
2023/09/02 10:18:03;;;;;;;13.43;3.67;;;;;;;-142.57;33.46;115900.28;4993368;28;20038;-83
2023/09/02 10:20:31;;;;;;;11.77;3.83;;;;;;;-142.57;33.22;115900.28;4996086;28;20081;-89
2023/09/02 10:23:09;;;;;;;8.85;3.50;;;;;;;-142.57;33.34;115900.28;4997850;28;20502;-87
2023/09/02 10:26:08;;;;;;;11.07;3.83;;;;;;;-142.57;32.34;115900.28;4997032;28;20053;-84
2023/09/02 10:28:43;;;;;;;12.25;4.05;;;;;;;-142.57;32.64;115900.28;5002934;28;20038;-88
2023/09/02 10:31:19;;;;;;;12.55;3.58;;;;;;;-142.57;31.50;115900.28;4995925;28;20093;-87
2023/09/02 10:34:08;;;;;;;9.73;4.55;;;;;;;-142.57;31.72;115900.28;4995730;28;20034;-87
2023/09/02 10:36:38;;;;;;;14.30;4.03;;;;;;;-142.57;32.55;115900.28;4996035;28;20502;-85
2023/09/02 10:39:13;;;;;;;12.05;3.67;;;;;;;-142.57;32.32;115900.28;4999903;28;20432;-83
2023/09/02 10:41:47;;;;;;;13.57;3.88;;;;;;;-142.57;33.01;115900.28;5014185;28;20034;-85
2023/09/02 10:44:13;;;;;;;18.70;4.05;;;;;;;-142.57;31.57;115900.28;5016937;28;20041;-84
2023/09/02 10:46:42;;;;;;;8.85;3.38;;;;;;;-142.57;31.65;115900.28;5015425;28;20022;-88
2023/09/02 10:49:11;;;;;;;15.40;3.55;;;;;;;-142.57;30.46;115900.28;5018256;28;20447;-88
2023/09/02 10:51:40;;;;;;;15.20;4.55;;;;;;;-142.57;31.05;115900.28;5014254;28;20046;-80
2023/09/02 10:54:06;;;;;;;11.00;4.10;;;;;;;-142.57;30.16;115900.28;5015137;28;20089;-85
2023/09/02 10:56:33;;;;;;;10.18;3.30;;;;;;;-142.57;30.78;115900.28;4997980;28;20408;-85
2023/09/02 10:59:04;;;;;;;10.00;2.90;;;;;;;-142.57;31.44;115900.28;5014596;28;20091;-88
2023/09/02 11:01:44;;;;;;;12.30;3.42;;;;;;;-142.57;30.45;115900.28;4998059;28;20046;-88
2023/09/02 11:04:10;;;;;;;12.10;3.58;;;;;;;-142.57;30.08;115900.28;5013991;28;20033;-84
2023/09/02 11:06:36;;;;;;;10.95;3.20;;;;;;;-142.57;30.10;115900.28;5014870;28;20030;-89
2023/09/02 11:09:02;;;;;;;9.00;2.90;;;;;;;-142.57;29.25;115900.28;5014862;28;20046;-86